.
WxDataArchive / Data Records for 2013-12-07
2013-12-06 December 2013 2013-12-08

Data Records for Saturday, 07 December 2013

Time	Temp	Chill	HIndex	Humid	Dewpt	 Wind 	HiWind	WindDir	Rain 	Barom 
-----	----	-----	------	-----	-----	------	------	-------	-----	----- 
00:00	24.1	24.1	24.1	63	13.4	0	2	315	0.00	30.437 
00:05	24.1	24.1	24.1	63	13.4	1	5	270	0.00	30.437 
00:10	24.1	24.1	24.1	63	13.4	0	3	338	0.00	30.437 
00:15	23.9	23.9	23.9	63	13.2	0	2	338	0.00	30.434 
00:20	23.9	23.9	23.9	63	13.2	0	2	338	0.00	30.434 
00:25	23.9	23.9	23.9	63	13.2	0	3	338	0.00	30.434 
00:30	24.1	24.1	24.1	64	13.7	0	3	338	0.00	30.441 
00:35	24.1	24.1	24.1	64	13.7	0	2	338	0.00	30.441 
00:40	24.1	24.1	24.1	63	13.4	1	3	270	0.00	30.441 
00:45	24.1	24.1	24.1	63	13.4	1	3	292	0.00	30.440 
00:50	23.9	23.9	23.9	63	13.2	1	4	292	0.00	30.440 
00:55	23.9	23.9	23.9	63	13.2	0	4	292	0.00	30.440 
01:00	23.9	23.9	23.9	63	13.2	0	3	0	0.00	30.444 
01:05	23.9	23.9	23.9	62	12.8	1	3	315	0.00	30.444 
01:10	23.9	23.9	23.9	62	12.8	0	3	315	0.00	30.444 
01:15	23.9	23.9	23.9	62	12.8	0	2	315	0.00	30.443 
01:20	23.8	23.8	23.8	62	12.7	0	3	292	0.00	30.443 
01:25	23.8	23.8	23.8	62	12.7	0	1	292	0.00	30.443 
01:30	23.8	23.8	23.8	62	12.7	0	2	292	0.00	30.445 
01:35	23.8	23.8	23.8	62	12.7	0	1	292	0.00	30.445 
01:40	23.6	23.6	23.6	62	12.5	1	2	292	0.00	30.445 
01:45	23.6	23.6	23.6	62	12.5	1	3	292	0.00	30.445 
01:50	23.6	23.6	23.6	62	12.5	1	3	270	0.00	30.445 
01:55	23.6	23.6	23.6	62	12.5	1	4	315	0.00	30.445 
02:00	23.6	23.6	23.6	62	12.5	1	2	315	0.00	30.449 
02:05	23.6	23.6	23.6	61	12.2	1	3	292	0.00	30.449 
02:10	23.6	23.6	23.6	61	12.2	1	4	270	0.00	30.449 
02:15	23.5	23.5	23.5	61	12.1	1	3	270	0.00	30.460 
02:20	23.5	23.5	23.5	61	12.1	0	2	270	0.00	30.460 
02:25	23.6	23.6	23.6	61	12.2	1	3	270	0.00	30.460 
02:30	23.5	23.5	23.5	60	11.7	1	4	270	0.00	30.462 
02:35	23.5	23.5	23.5	60	11.7	0	1	292	0.00	30.462 
02:40	23.5	23.5	23.5	61	12.1	0	2	292	0.00	30.462 
02:45	23.3	23.3	23.3	60	11.5	1	3	292	0.00	30.464 
02:50	23.3	23.3	23.3	60	11.5	0	2	292	0.00	30.464 
02:55	23.3	23.3	23.3	61	11.9	0	1	292	0.00	30.464 
03:00	23.2	23.2	23.2	61	11.8	0	2	292	0.00	30.476 
03:05	23.2	23.2	23.2	61	11.8	1	3	315	0.00	30.476 
03:10	23.2	23.2	23.2	60	11.4	1	3	292	0.00	30.476 
03:15	23.0	23.0	23.0	60	11.2	1	3	292	0.00	30.481 
03:20	23.0	23.0	23.0	59	10.8	1	4	315	0.00	30.481 
03:25	23.0	23.0	23.0	60	11.2	0	3	315	0.00	30.481 
03:30	23.0	23.0	23.0	60	11.2	0	2	315	0.00	30.484 
03:35	22.9	22.9	22.9	60	11.1	0	1	315	0.00	30.484 
03:40	22.7	22.7	22.7	61	11.3	0	1	315	0.00	30.484 
03:45	22.5	22.5	22.5	61	11.1	0	1	315	0.00	30.484 
03:50	22.4	22.4	22.4	62	11.4	0	1	315	0.00	30.484 
03:55	22.2	22.2	22.2	62	11.2	0	1	315	0.00	30.484 
04:00	22.1	22.1	22.1	62	11.1	0	1	315	0.00	30.487 
04:05	21.9	21.9	21.9	63	11.3	0	1	315	0.00	30.487 
04:10	21.8	21.8	21.8	64	11.5	0	0	---	0.00	30.487 
04:15	21.8	21.8	21.8	64	11.5	0	0	---	0.00	30.490 
04:20	21.8	21.8	21.8	64	11.5	0	0	---	0.00	30.490 
04:25	21.6	21.6	21.6	64	11.3	0	1	315	0.00	30.490 
04:30	21.6	21.6	21.6	64	11.3	0	0	---	0.00	30.492 
04:35	21.4	21.4	21.4	65	11.5	0	0	---	0.00	30.492 
04:40	21.4	21.4	21.4	65	11.5	0	1	315	0.00	30.492 
04:45	21.4	21.4	21.4	65	11.5	0	0	---	0.00	30.498 
04:50	21.4	21.4	21.4	66	11.8	0	1	315	0.00	30.498 
04:55	21.6	21.6	21.6	67	12.4	0	2	315	0.00	30.498 
05:00	21.8	21.8	21.8	68	12.9	0	1	315	0.00	30.501 
05:05	21.9	21.9	21.9	68	13.0	0	1	315	0.00	30.501 
05:10	21.8	21.8	21.8	68	12.9	0	2	315	0.00	30.501 
05:15	21.8	21.8	21.8	69	13.2	1	4	270	0.00	30.509 
05:20	21.8	21.8	21.8	70	13.5	0	3	292	0.00	30.509 
05:25	21.8	21.8	21.8	70	13.5	0	1	292	0.00	30.509 
05:30	21.8	21.8	21.8	71	13.9	0	3	292	0.00	30.516 
05:35	21.6	21.6	21.6	72	14.0	1	3	315	0.00	30.516 
05:40	21.4	21.4	21.4	72	13.8	0	3	248	0.00	30.516 
05:45	21.3	21.3	21.3	73	14.0	0	3	248	0.00	30.525 
05:50	21.3	21.3	21.3	73	14.0	0	2	315	0.00	30.525 
05:55	21.3	21.3	21.3	73	14.0	0	1	315	0.00	30.525 
06:00	21.3	21.3	21.3	73	14.0	0	2	270	0.00	30.529 
06:05	21.1	21.1	21.1	74	14.1	0	2	270	0.00	30.529 
06:10	21.0	21.0	21.0	74	14.0	0	2	270	0.00	30.529 
06:15	20.8	20.8	20.8	74	13.8	0	2	270	0.00	30.535 
06:20	20.6	20.6	20.6	75	14.0	0	2	270	0.00	30.535 
06:25	20.5	20.5	20.5	75	13.9	0	2	270	0.00	30.535 
06:30	20.3	20.3	20.3	75	13.7	0	1	270	0.00	30.544 
06:35	20.2	20.2	20.2	75	13.6	0	1	270	0.00	30.544 
06:40	20.0	20.0	20.0	76	13.7	0	1	270	0.00	30.544 
06:45	19.9	19.9	19.9	76	13.6	0	1	270	0.00	30.548 
06:50	19.7	19.7	19.7	77	13.7	0	1	270	0.00	30.548 
06:55	19.5	19.5	19.5	77	13.5	0	0	---	0.00	30.548 
07:00	19.4	19.4	19.4	77	13.4	0	0	---	0.00	30.556 
07:05	19.2	19.2	19.2	78	13.5	0	0	---	0.00	30.556 
07:10	19.2	19.2	19.2	78	13.5	0	0	---	0.00	30.556 
07:15	19.2	19.2	19.2	79	13.8	0	1	270	0.00	30.561 
07:20	19.2	19.2	19.2	79	13.8	0	1	270	0.00	30.561 
07:25	19.4	19.4	19.4	79	14.0	0	0	---	0.00	30.561 
07:30	19.4	19.4	19.4	80	14.3	0	0	---	0.00	30.563 
07:35	19.4	19.4	19.4	80	14.3	0	0	---	0.00	30.563 
07:40	19.4	19.4	19.4	80	14.3	0	0	---	0.00	30.563 
07:45	19.4	19.4	19.4	80	14.3	0	1	270	0.00	30.566 
07:50	19.5	19.5	19.5	80	14.4	0	1	270	0.00	30.566 
07:55	19.4	19.4	19.4	80	14.3	0	0	---	0.00	30.566 
08:00	19.4	19.4	19.4	80	14.3	0	0	---	0.00	30.576 
08:05	19.2	19.2	19.2	80	14.1	0	1	270	0.00	30.576 
08:10	19.2	19.2	19.2	80	14.1	0	0	---	0.00	30.576 
08:15	19.2	19.2	19.2	80	14.1	0	0	---	0.00	30.582 
08:20	19.2	19.2	19.2	80	14.1	0	1	270	0.00	30.582 
08:25	19.4	19.4	19.4	80	14.3	0	1	270	0.00	30.582 
08:30	19.5	19.5	19.5	80	14.4	0	1	270	0.00	30.588 
08:35	19.5	19.5	19.5	79	14.1	0	2	270	0.00	30.588 
08:40	19.5	19.5	19.5	79	14.1	0	1	270	0.00	30.588 
08:45	19.5	19.5	19.5	78	13.8	0	2	270	0.00	30.592 
08:50	19.5	19.5	19.5	78	13.8	0	1	270	0.00	30.592 
08:55	19.5	19.5	19.5	78	13.8	0	1	270	0.00	30.592 
09:00	19.7	19.7	19.7	78	14.0	0	2	270	0.00	30.594 
09:05	19.9	19.9	19.9	78	14.2	0	1	270	0.00	30.594 
09:10	20.0	20.0	20.0	77	14.0	0	2	270	0.00	30.594 
09:15	20.3	20.3	20.3	77	14.3	0	2	270	0.00	30.606 
09:20	20.6	20.6	20.6	76	14.3	0	2	270	0.00	30.606 
09:25	21.0	21.0	21.0	74	14.0	0	2	270	0.00	30.606 
09:30	21.0	21.0	21.0	73	13.7	0	2	270	0.00	30.607 
09:35	21.1	21.1	21.1	72	13.5	0	2	270	0.00	30.607 
09:40	21.3	21.3	21.3	71	13.4	0	2	270	0.00	30.607 
09:45	21.3	21.3	21.3	70	13.1	0	1	270	0.00	30.609 
09:50	21.3	21.3	21.3	71	13.4	0	1	270	0.00	30.609 
09:55	21.4	21.4	21.4	69	12.8	0	3	270	0.00	30.609 
10:00	21.8	21.8	21.8	68	12.9	0	3	270	0.00	30.611 
10:05	22.1	22.1	22.1	67	12.8	0	2	270	0.00	30.611 
10:10	22.4	22.4	22.4	65	12.4	1	3	270	0.00	30.611 
10:15	22.7	22.7	22.7	62	11.7	1	4	270	0.00	30.612 
10:20	22.7	22.7	22.7	59	10.6	1	5	292	0.00	30.612 
10:25	22.7	22.7	22.7	59	10.6	1	3	315	0.00	30.612 
10:30	22.9	22.9	22.9	59	10.7	0	2	315	0.00	30.620 
10:35	23.2	23.2	23.2	59	11.0	1	4	0	0.00	30.620 
10:40	23.3	23.3	23.3	59	11.1	1	3	0	0.00	30.620 
10:45	23.3	23.3	23.3	58	10.7	1	3	315	0.00	30.624 
10:50	23.3	23.3	23.3	58	10.7	1	5	338	0.00	30.624 
10:55	23.3	23.3	23.3	58	10.7	1	3	292	0.00	30.624 
11:00	23.8	23.8	23.8	58	11.2	1	3	270	0.00	30.625 
11:05	23.9	23.9	23.9	57	10.9	1	4	315	0.00	30.625 
11:10	23.8	23.8	23.8	57	10.8	1	2	315	0.00	30.625 
11:15	23.6	23.6	23.6	57	10.6	0	2	315	0.00	30.633 
11:20	23.5	23.5	23.5	57	10.5	1	4	315	0.00	30.633 
11:25	23.5	23.5	23.5	58	10.9	1	4	338	0.00	30.633 
11:30	23.5	23.5	23.5	59	11.3	0	1	338	0.00	30.627 
11:35	23.6	23.6	23.6	59	11.4	1	2	315	0.00	30.627 
11:40	23.6	23.6	23.6	59	11.4	1	3	315	0.00	30.627 
11:45	23.6	23.6	23.6	60	11.8	1	5	248	0.00	30.625 
11:50	23.5	23.5	23.5	60	11.7	1	5	292	0.00	30.625 
11:55	23.5	23.5	23.5	61	12.1	0	2	292	0.00	30.625 
12:00	23.5	23.5	23.5	61	12.1	1	5	315	0.00	30.623 
12:05	23.5	23.5	23.5	62	12.4	1	4	315	0.00	30.623 
12:10	23.5	23.5	23.5	62	12.4	0	2	0	0.00	30.623 
12:15	23.6	23.6	23.6	62	12.5	1	5	315	0.00	30.621 
12:20	23.6	23.6	23.6	61	12.2	1	3	270	0.00	30.621 
12:25	23.3	23.3	23.3	59	11.1	1	4	315	0.00	30.621 
12:30	23.2	23.2	23.2	59	11.0	0	3	315	0.00	30.615 
12:35	23.6	23.6	23.6	58	11.0	1	3	315	0.00	30.615 
12:40	23.9	23.9	23.9	57	10.9	1	3	315	0.00	30.615 
12:45	23.9	23.9	23.9	56	10.5	0	3	270	0.00	30.608 
12:50	24.1	24.1	24.1	56	10.7	0	2	270	0.00	30.608 
12:55	24.4	24.4	24.4	56	11.0	1	6	270	0.00	30.608 
13:00	24.7	24.7	24.7	54	10.5	1	6	338	0.00	30.603 
13:05	25.1	25.1	25.1	54	10.8	1	5	315	0.00	30.603 
13:10	25.4	25.4	25.4	54	11.1	0	3	270	0.00	30.603 
13:15	25.8	25.8	25.8	54	11.5	1	4	292	0.00	30.598 
13:20	26.3	26.3	26.3	53	11.5	0	2	292	0.00	30.598 
13:25	26.1	26.1	26.1	51	10.5	1	4	292	0.00	30.598 
13:30	25.8	25.8	25.8	52	10.6	1	3	0	0.00	30.595 
13:35	25.8	25.8	25.8	54	11.5	1	4	0	0.00	30.595 
13:40	25.4	25.4	25.4	53	10.7	1	3	315	0.00	30.595 
13:45	24.8	24.8	24.8	52	9.7	1	5	338	0.00	30.595 
13:50	24.8	24.8	24.8	53	10.1	0	2	338	0.00	30.595 
13:55	24.8	24.8	24.8	53	10.1	1	3	338	0.00	30.595 
14:00	25.0	25.0	25.0	52	9.9	1	3	292	0.00	30.589 
14:05	25.6	25.6	25.6	52	10.4	0	2	292	0.00	30.589 
14:10	25.7	25.7	25.7	52	10.5	0	3	292	0.00	30.589 
14:15	25.7	25.7	25.7	51	10.1	2	5	292	0.00	30.589 
14:20	25.7	25.7	25.7	52	10.5	1	2	292	0.00	30.589 
14:25	25.6	25.6	25.6	52	10.4	1	3	315	0.00	30.589 
14:30	25.3	25.3	25.3	52	10.2	0	2	315	0.00	30.579 
14:35	25.1	25.1	25.1	52	10.0	0	2	315	0.00	30.579 
14:40	25.0	25.0	25.0	53	10.3	0	4	315	0.00	30.579 
14:45	25.0	25.0	25.0	52	9.9	0	3	338	0.00	30.585 
14:50	25.4	25.4	25.4	53	10.7	0	2	315	0.00	30.585 
14:55	25.8	25.8	25.8	52	10.6	0	1	315	0.00	30.585 
15:00	26.1	26.1	26.1	52	10.9	0	1	315	0.00	30.579 
15:05	26.6	26.6	26.6	50	10.5	1	3	315	0.00	30.579 
15:10	26.7	26.7	26.7	50	10.6	1	3	270	0.00	30.579 
15:15	26.7	26.7	26.7	49	10.1	1	3	270	0.00	30.584 
15:20	26.7	26.7	26.7	50	10.6	0	3	270	0.00	30.584 
15:25	26.6	26.6	26.6	50	10.5	1	2	270	0.00	30.584 
15:30	26.7	26.7	26.7	50	10.6	1	4	270	0.00	30.587 
15:35	26.6	26.6	26.6	51	10.9	0	2	270	0.00	30.587 
15:40	26.6	26.6	26.6	50	10.5	1	4	270	0.00	30.587 
15:45	26.3	26.3	26.3	51	10.7	1	4	22	0.00	30.592 
15:50	26.0	26.0	26.0	50	9.9	1	2	0	0.00	30.592 
15:55	25.7	25.7	25.7	50	9.7	1	3	0	0.00	30.592 
16:00	25.6	25.6	25.6	50	9.6	0	2	22	0.00	30.593 
16:05	25.6	25.6	25.6	50	9.6	0	2	0	0.00	30.593 
16:10	25.6	25.6	25.6	51	10.0	1	4	0	0.00	30.593 
16:15	25.3	25.3	25.3	52	10.2	1	5	315	0.00	30.594 
16:20	25.0	25.0	25.0	52	9.9	2	5	338	0.00	30.594 
16:25	24.8	24.8	24.8	52	9.7	1	6	338	0.00	30.594 
16:30	24.7	24.7	24.7	53	10.0	1	3	315	0.00	30.596 
16:35	24.5	24.5	24.5	53	9.8	1	3	315	0.00	30.596 
16:40	24.2	24.2	24.2	53	9.6	1	3	315	0.00	30.596 
16:45	24.1	24.1	24.1	53	9.5	1	2	315	0.00	30.596 
16:50	24.1	24.1	24.1	54	9.9	0	3	315	0.00	30.596 
16:55	23.9	23.9	23.9	54	9.7	0	1	292	0.00	30.596 
17:00	23.8	23.8	23.8	55	10.0	0	3	292	0.00	30.595 
17:05	23.5	23.5	23.5	55	9.7	0	1	292	0.00	30.595 
17:10	23.3	23.3	23.3	56	10.0	0	1	292	0.00	30.595 
17:15	23.0	23.0	23.0	57	10.1	0	1	292	0.00	30.597 
17:20	22.9	22.9	22.9	57	10.0	0	2	292	0.00	30.597 
17:25	22.7	22.7	22.7	57	9.8	0	2	292	0.00	30.597 
17:30	22.5	22.5	22.5	57	9.6	0	1	292	0.00	30.600 
17:35	22.2	22.2	22.2	57	9.3	0	1	292	0.00	30.600 
17:40	22.2	22.2	22.2	58	9.7	0	1	292	0.00	30.600 
17:45	21.9	21.9	21.9	58	9.4	0	1	292	0.00	30.608 
17:50	21.9	21.9	21.9	59	9.8	0	2	292	0.00	30.608 
17:55	21.8	21.8	21.8	59	9.7	0	2	292	0.00	30.608 
18:00	21.6	21.6	21.6	60	9.9	0	1	292	0.00	30.607 
18:05	21.4	21.4	21.4	60	9.7	0	1	292	0.00	30.607 
18:10	21.3	21.3	21.3	60	9.6	0	1	292	0.00	30.607 
18:15	21.1	21.1	21.1	61	9.8	0	0	---	0.00	30.614 
18:20	21.1	21.1	21.1	61	9.8	0	1	292	0.00	30.614 
18:25	21.0	21.0	21.0	61	9.7	0	1	292	0.00	30.614 
18:30	20.8	20.8	20.8	62	9.9	0	1	292	0.00	30.607 
18:35	20.6	20.6	20.6	62	9.7	0	1	292	0.00	30.607 
18:40	20.6	20.6	20.6	62	9.7	0	0	---	0.00	30.607 
18:45	20.5	20.5	20.5	63	9.9	0	1	292	0.00	30.615 
18:50	20.5	20.5	20.5	63	9.9	0	2	292	0.00	30.615 
18:55	20.5	20.5	20.5	63	9.9	0	1	292	0.00	30.615 
19:00	20.3	20.3	20.3	63	9.7	0	1	292	0.00	30.632 
19:05	20.2	20.2	20.2	63	9.7	0	1	292	0.00	30.632 
19:10	20.0	20.0	20.0	64	9.8	0	1	292	0.00	30.632 
19:15	20.0	20.0	20.0	64	9.8	0	1	292	0.00	30.636 
19:20	19.9	19.9	19.9	64	9.7	0	0	---	0.00	30.636 
19:25	19.9	19.9	19.9	64	9.7	0	1	292	0.00	30.636 
19:30	19.7	19.7	19.7	64	9.5	0	1	292	0.00	30.642 
19:35	19.7	19.7	19.7	64	9.5	0	1	292	0.00	30.642 
19:40	19.5	19.5	19.5	64	9.3	0	1	292	0.00	30.642 
19:45	19.4	19.4	19.4	64	9.2	0	1	292	0.00	30.648 
19:50	19.2	19.2	19.2	64	9.0	0	0	---	0.00	30.648 
19:55	19.1	19.1	19.1	65	9.3	0	0	---	0.00	30.648 
20:00	18.9	18.9	18.9	65	9.1	0	0	---	0.00	30.644 
20:05	18.8	18.8	18.8	65	9.0	0	1	292	0.00	30.644 
20:10	18.8	18.8	18.8	65	9.0	0	1	292	0.00	30.644 
20:15	18.6	18.6	18.6	66	9.2	0	0	---	0.00	30.642 
20:20	18.4	18.4	18.4	66	9.0	0	0	---	0.00	30.642 
20:25	18.4	18.4	18.4	66	9.0	0	0	---	0.00	30.642 
20:30	18.3	18.3	18.3	66	8.9	0	0	---	0.00	30.646 
20:35	18.1	18.1	18.1	66	8.7	0	0	---	0.00	30.646 
20:40	18.1	18.1	18.1	67	9.0	0	0	---	0.00	30.646 
20:45	18.0	18.0	18.0	67	8.9	0	0	---	0.00	30.637 
20:50	17.8	17.8	17.8	67	8.7	0	0	---	0.00	30.637 
20:55	17.8	17.8	17.8	68	9.1	0	0	---	0.00	30.637 
21:00	17.7	17.7	17.7	68	9.0	0	0	---	0.00	30.632 
21:05	17.5	17.5	17.5	68	8.8	0	0	---	0.00	30.632 
21:10	17.3	17.3	17.3	68	8.6	0	0	---	0.00	30.632 
21:15	17.2	17.2	17.2	69	8.8	0	0	---	0.00	30.632 
21:20	17.0	17.0	17.0	69	8.6	0	0	---	0.00	30.632 
21:25	16.9	16.9	16.9	69	8.5	0	0	---	0.00	30.632 
21:30	16.7	16.7	16.7	70	8.6	0	0	---	0.00	30.632 
21:35	16.7	16.7	16.7	70	8.6	0	0	---	0.00	30.632 
21:40	16.5	16.5	16.5	70	8.5	0	0	---	0.00	30.632 
21:45	16.4	16.4	16.4	70	8.4	0	0	---	0.00	30.629 
21:50	16.2	16.2	16.2	71	8.5	0	0	---	0.00	30.629 
21:55	16.1	16.1	16.1	71	8.4	0	0	---	0.00	30.629 
22:00	15.9	15.9	15.9	72	8.5	0	0	---	0.00	30.628 
22:05	15.7	15.7	15.7	72	8.3	0	0	---	0.00	30.628 
22:10	15.6	15.6	15.6	73	8.5	0	0	---	0.00	30.628 
22:15	15.4	15.4	15.4	73	8.3	0	0	---	0.00	30.631 
22:20	15.2	15.2	15.2	74	8.4	0	0	---	0.00	30.631 
22:25	15.2	15.2	15.2	74	8.4	0	0	---	0.00	30.631 
22:30	15.1	15.1	15.1	74	8.3	0	0	---	0.00	30.622 
22:35	15.1	15.1	15.1	75	8.6	0	0	---	0.00	30.622 
22:40	14.9	14.9	14.9	75	8.4	0	0	---	0.00	30.622 
22:45	14.9	14.9	14.9	75	8.4	0	0	---	0.00	30.618 
22:50	14.9	14.9	14.9	76	8.7	0	0	---	0.00	30.618 
22:55	14.8	14.8	14.8	76	8.6	0	0	---	0.00	30.618 
23:00	14.9	14.9	14.9	76	8.7	0	0	---	0.00	30.614 
23:05	14.9	14.9	14.9	76	8.7	0	0	---	0.00	30.614 
23:10	14.9	14.9	14.9	76	8.7	0	0	---	0.00	30.614 
23:15	15.1	15.1	15.1	76	8.9	0	0	---	0.00	30.609 
23:20	15.1	15.1	15.1	77	9.2	0	0	---	0.00	30.609 
23:25	15.1	15.1	15.1	77	9.2	0	0	---	0.00	30.609 
23:30	15.1	15.1	15.1	77	9.2	0	0	---	0.00	30.598 
23:35	15.2	15.2	15.2	77	9.3	0	0	---	0.00	30.598 
23:40	15.2	15.2	15.2	77	9.3	0	2	292	0.00	30.598 
23:45	15.6	15.6	15.6	77	9.7	0	1	292	0.00	30.601 
23:50	15.7	15.7	15.7	77	9.8	0	1	292	0.00	30.601 
23:55	15.9	15.9	15.9	76	9.7	0	0	---	0.00	30.601 

CoCoRaHS
IN-AL-39
A2 Web Hosting
Creative Commons License
GoDaddy
search engine by freefind advanced

loaded 2018-11-17 19:20:46 • last modified 2010-11-18 10:43:29
Privacy PolicyDisclaimer
• wx.awcolley.com is powered by PmWiki v.2002016 •
• all content (unless otherwise noted) © 2018 A W Colley